Aviation Digital Data Service (ADDS)

Output produced by TAFs form (0931 UTC 25 November 2017)
found at http://www.aviationweather.gov/adds/tafs/
 
METAR text: RJNS 250900Z 26017KT 9999 FEW030 BKN180 BKN/// 10/00 Q1024
Conditions at: RJNS (SHIZOUKA , JP) observed 0900 UTC 25 November 2017
Temperature: 10.0°C (50°F)
Dewpoint: 0.0°C (32°F) [RH = 50%]
Pressure (altimeter): 30.24 inches Hg (1024.0 mb)
Winds: from the W (260 degrees) at 20 MPH (17 knots; 8.8 m/s)
Visibility: 6 or more miles (10+ km)
Ceiling: 18000 feet AGL
Clouds: few clouds at 3000 feet AGL
broken clouds at 18000 feet AGL
Weather: no significant weather observed at this time

Forecast for: RJNS (SHIZOUKA , JP)
Text: TAF RJNS 250506Z 2506/2612 26014KT 9999 FEW030
Forecast period: 0600 UTC 25 November 2017 to 1200 UTC 26 November 2017
Forecast type: FROM: standard forecast or significant change
Winds: from the W (260 degrees) at 16 MPH (14 knots; 7.3 m/s)
Visibility: 6 or more miles (10+ km)
Clouds: few clouds at 3000 feet AGL
Weather: no significant weather forecast for this period